createdAt,value
2022-12-31T00:00:03.081Z,12.12
2022-12-31T00:05:08.919Z,12.14
2022-12-31T00:15:38.889Z,12.13
2022-12-31T00:20:42.739Z,12.17
2022-12-31T00:25:46.982Z,12.13
2022-12-31T00:30:49.892Z,12.13
2022-12-31T00:35:52.871Z,12.19
2022-12-31T00:40:57.183Z,12.09
2022-12-31T00:46:00.509Z,11.98
2022-12-31T00:51:05.107Z,11.85
2022-12-31T00:56:12.011Z,11.74
2022-12-31T01:01:19.924Z,11.63
2022-12-31T01:06:23.531Z,11.48
2022-12-31T01:11:29.528Z,11.36
2022-12-31T01:16:34.092Z,11.32
2022-12-31T01:21:38.019Z,11.27
2022-12-31T01:26:42.569Z,11.31
2022-12-31T01:31:45.506Z,11.38
2022-12-31T01:36:48.646Z,11.40
2022-12-31T01:41:53.059Z,11.42
2022-12-31T01:46:58.335Z,11.48
2022-12-31T01:52:05.539Z,11.43
2022-12-31T01:57:10.715Z,11.44
2022-12-31T02:02:14.356Z,11.40
2022-12-31T02:07:17.358Z,11.39
2022-12-31T02:12:21.971Z,11.34
2022-12-31T02:17:29.868Z,11.26
2022-12-31T02:22:46.939Z,11.24
2022-12-31T02:28:01.347Z,11.17
2022-12-31T02:33:10.520Z,11.12
2022-12-31T02:38:17.096Z,11.16
2022-12-31T02:43:22.205Z,11.21
2022-12-31T02:48:35.712Z,11.29
2022-12-31T02:53:49.542Z,11.33
2022-12-31T02:59:16.847Z,11.31
2022-12-31T03:04:35.863Z,11.29
2022-12-31T03:09:39.290Z,11.41
2022-12-31T03:14:42.178Z,11.46
2022-12-31T03:20:03.859Z,11.45
2022-12-31T03:25:26.978Z,11.47
2022-12-31T03:30:30.761Z,11.43
2022-12-31T03:35:36.952Z,11.38
2022-12-31T03:40:41.715Z,11.33
2022-12-31T03:45:45.704Z,11.29
2022-12-31T03:51:12.537Z,11.24
2022-12-31T03:56:15.431Z,11.23
2022-12-31T04:01:19.596Z,11.19
2022-12-31T04:06:23.913Z,11.11
2022-12-31T04:11:26.757Z,11.05
2022-12-31T04:16:29.760Z,10.96
2022-12-31T04:21:35.304Z,10.86
2022-12-31T04:26:39.019Z,10.81
2022-12-31T04:31:42.185Z,10.80
2022-12-31T04:36:46.504Z,10.73
2022-12-31T04:41:51.886Z,10.76
2022-12-31T04:46:54.736Z,10.74
2022-12-31T04:51:58.869Z,10.73
2022-12-31T04:57:01.822Z,10.70
2022-12-31T05:02:04.818Z,10.66
2022-12-31T05:07:09.329Z,10.62
2022-12-31T05:12:12.337Z,10.62
2022-12-31T05:17:15.223Z,10.63
2022-12-31T05:22:31.579Z,10.64
2022-12-31T05:27:34.866Z,10.64
2022-12-31T05:32:38.084Z,10.65
2022-12-31T05:37:45.302Z,10.68
2022-12-31T05:42:50.648Z,10.68
2022-12-31T05:47:53.546Z,10.66
2022-12-31T05:52:57.754Z,10.62
2022-12-31T05:58:00.660Z,10.65
2022-12-31T06:03:03.767Z,10.66
2022-12-31T06:08:08.145Z,10.62
2022-12-31T06:13:11.339Z,10.66
2022-12-31T06:18:16.551Z,10.66
2022-12-31T06:23:21.000Z,10.66
2022-12-31T06:28:24.064Z,10.55
2022-12-31T06:33:26.911Z,10.67
2022-12-31T06:38:32.401Z,10.71
2022-12-31T06:43:35.726Z,10.62
2022-12-31T06:48:38.986Z,10.77
2022-12-31T06:53:43.621Z,10.82
2022-12-31T06:58:47.151Z,10.86
2022-12-31T07:03:53.711Z,10.95
2022-12-31T07:09:03.867Z,11.03
2022-12-31T07:14:16.051Z,11.08
2022-12-31T07:19:26.628Z,11.25
2022-12-31T07:24:34.467Z,11.43
2022-12-31T07:29:46.170Z,11.67
2022-12-31T07:34:58.126Z,11.98
2022-12-31T07:40:05.446Z,12.30
2022-12-31T07:45:25.913Z,12.47
2022-12-31T07:50:32.393Z,12.61
2022-12-31T08:01:03.917Z,12.71
2022-12-31T08:06:12.999Z,12.69
2022-12-31T08:11:48.116Z,12.74
2022-12-31T08:22:50.549Z,12.89
2022-12-31T08:28:04.123Z,12.87
2022-12-31T08:38:48.377Z,12.93
2022-12-31T08:49:52.798Z,12.90
2022-12-31T09:00:51.652Z,13.05
2022-12-31T09:06:03.226Z,13.19
2022-12-31T09:11:20.790Z,13.19
2022-12-31T09:16:35.475Z,13.20
2022-12-31T09:21:49.218Z,13.32
2022-12-31T09:27:06.120Z,13.37
2022-12-31T09:32:24.348Z,13.31
2022-12-31T09:37:37.993Z,13.36
2022-12-31T09:43:21.669Z,13.35
2022-12-31T09:48:56.647Z,13.39
2022-12-31T09:54:28.130Z,13.44
2022-12-31T09:59:36.426Z,13.46
2022-12-31T10:04:50.445Z,13.55
2022-12-31T10:10:02.458Z,13.66
2022-12-31T10:15:22.180Z,13.67
2022-12-31T10:20:34.023Z,13.59
2022-12-31T10:26:03.657Z,13.54
2022-12-31T10:31:28.829Z,13.37
2022-12-31T10:36:49.874Z,13.26
2022-12-31T10:42:28.653Z,13.20
2022-12-31T10:48:19.334Z,13.11
2022-12-31T10:53:47.922Z,12.94
2022-12-31T10:59:23.549Z,12.84
2022-12-31T11:04:49.735Z,12.87
2022-12-31T11:16:37.043Z,13.17
2022-12-31T11:21:54.325Z,13.22
2022-12-31T11:27:07.645Z,13.29
2022-12-31T11:32:29.245Z,13.23
2022-12-31T11:37:42.354Z,13.11
2022-12-31T11:42:51.969Z,13.16
2022-12-31T11:53:55.135Z,13.25
2022-12-31T11:59:07.842Z,13.30
2022-12-31T12:04:16.681Z,13.22
2022-12-31T12:09:27.057Z,13.09
2022-12-31T12:14:33.650Z,13.08
2022-12-31T12:19:49.063Z,12.93
2022-12-31T12:25:02.455Z,12.84
2022-12-31T12:30:12.724Z,12.74
2022-12-31T12:35:20.887Z,12.70
2022-12-31T12:40:33.347Z,12.76
2022-12-31T12:45:42.438Z,12.78
2022-12-31T12:50:51.834Z,12.81
2022-12-31T12:56:04.321Z,12.84
2022-12-31T13:01:14.375Z,12.92
2022-12-31T13:06:30.683Z,13.03
2022-12-31T13:11:41.242Z,13.14
2022-12-31T13:16:48.191Z,13.23
2022-12-31T13:21:58.024Z,13.33
2022-12-31T13:27:06.762Z,13.44
2022-12-31T13:32:12.010Z,13.57
2022-12-31T13:37:23.981Z,13.64
2022-12-31T13:42:32.072Z,13.68
2022-12-31T13:47:39.605Z,13.74
2022-12-31T13:52:50.462Z,13.79
2022-12-31T13:57:54.710Z,13.77
2022-12-31T14:03:03.729Z,13.68
2022-12-31T14:08:33.492Z,13.64
2022-12-31T14:13:46.269Z,13.62
2022-12-31T14:24:36.338Z,13.48
2022-12-31T14:29:44.094Z,13.39
2022-12-31T14:35:00.882Z,13.33
2022-12-31T14:40:18.213Z,13.24
2022-12-31T14:45:30.086Z,13.16
2022-12-31T14:50:34.795Z,13.05
2022-12-31T14:55:40.836Z,12.98
2022-12-31T15:00:54.418Z,12.93
2022-12-31T15:06:08.841Z,12.90
2022-12-31T15:12:05.250Z,12.90
2022-12-31T15:17:16.522Z,12.92
2022-12-31T15:22:38.040Z,12.82
2022-12-31T15:27:47.384Z,12.79
2022-12-31T15:32:53.435Z,12.74
2022-12-31T15:38:01.259Z,12.68
2022-12-31T15:43:11.265Z,12.66
2022-12-31T15:48:17.799Z,12.83
2022-12-31T15:53:28.091Z,12.99
2022-12-31T15:58:35.851Z,13.03
2022-12-31T16:03:38.934Z,13.10
2022-12-31T16:08:44.996Z,13.25
2022-12-31T16:13:52.508Z,13.33
2022-12-31T16:18:57.065Z,13.36
2022-12-31T16:24:01.581Z,13.49
2022-12-31T16:29:05.830Z,13.50
2022-12-31T16:34:13.984Z,13.54
2022-12-31T16:39:26.703Z,13.61
2022-12-31T16:44:31.670Z,13.67
2022-12-31T16:49:36.573Z,13.74
2022-12-31T16:54:41.411Z,13.78
2022-12-31T16:59:46.975Z,13.78
2022-12-31T17:04:55.737Z,13.80
2022-12-31T17:10:16.230Z,13.87
2022-12-31T17:15:23.354Z,13.98
2022-12-31T17:20:30.062Z,14.02
2022-12-31T17:25:34.463Z,13.95
2022-12-31T17:30:43.563Z,14.07
2022-12-31T17:35:46.739Z,14.07
2022-12-31T17:40:52.323Z,14.05
2022-12-31T17:45:56.840Z,14.00
2022-12-31T17:51:01.808Z,14.05
2022-12-31T17:56:07.213Z,14.21
2022-12-31T18:01:13.480Z,14.30
2022-12-31T18:06:19.494Z,14.42
2022-12-31T18:11:24.806Z,14.32
2022-12-31T18:16:29.135Z,14.51
2022-12-31T18:21:34.517Z,14.54
2022-12-31T18:26:37.403Z,14.56
2022-12-31T18:31:43.823Z,14.58
2022-12-31T18:37:15.160Z,14.64
2022-12-31T18:42:25.201Z,14.71
2022-12-31T18:47:37.315Z,14.72
2022-12-31T18:52:40.411Z,14.85
2022-12-31T18:57:43.252Z,14.70
2022-12-31T19:02:47.445Z,14.65
2022-12-31T19:07:50.316Z,14.69
2022-12-31T19:12:54.962Z,14.61
2022-12-31T19:17:59.447Z,14.68
2022-12-31T19:23:02.603Z,14.69
2022-12-31T19:28:07.449Z,14.77
2022-12-31T19:33:15.156Z,14.74
2022-12-31T19:38:20.614Z,14.81
2022-12-31T19:43:24.649Z,14.83
2022-12-31T19:48:32.938Z,14.91
2022-12-31T19:53:36.062Z,14.79
2022-12-31T19:58:39.580Z,14.77
2022-12-31T20:03:47.489Z,14.80
2022-12-31T20:08:50.371Z,14.71
2022-12-31T20:13:53.933Z,14.81
2022-12-31T20:18:58.428Z,14.83
2022-12-31T20:24:01.289Z,14.80
2022-12-31T20:29:04.173Z,14.52
2022-12-31T20:34:08.358Z,14.31
2022-12-31T20:39:11.206Z,14.45
2022-12-31T20:44:14.036Z,14.58
2022-12-31T20:49:31.175Z,14.63
2022-12-31T20:54:40.979Z,14.63
2022-12-31T20:59:43.810Z,14.51
2022-12-31T21:04:48.138Z,14.53
2022-12-31T21:09:51.202Z,14.63
2022-12-31T21:14:54.049Z,14.69
2022-12-31T21:20:21.986Z,14.84
2022-12-31T21:25:26.717Z,14.77
2022-12-31T21:30:29.550Z,14.90
2022-12-31T21:35:45.798Z,14.75
2022-12-31T21:40:54.675Z,14.99
2022-12-31T21:46:02.455Z,14.93
2022-12-31T21:51:09.906Z,14.98
2022-12-31T21:56:14.608Z,15.04
2022-12-31T22:07:02.017Z,15.22
2022-12-31T22:12:09.755Z,15.20
2022-12-31T22:17:12.887Z,15.08
2022-12-31T22:22:19.406Z,15.12
2022-12-31T22:27:28.098Z,15.16
2022-12-31T22:32:32.518Z,15.20
2022-12-31T22:37:56.379Z,15.01
2022-12-31T22:42:59.405Z,14.98
2022-12-31T22:48:02.266Z,15.01
2022-12-31T22:53:06.468Z,14.99
2022-12-31T22:58:12.000Z,14.77
2022-12-31T23:03:15.886Z,14.48
2022-12-31T23:08:24.269Z,14.18
2022-12-31T23:13:50.161Z,14.11
2022-12-31T23:19:11.435Z,14.23
2022-12-31T23:24:22.771Z,14.37
2022-12-31T23:29:29.072Z,14.53
2022-12-31T23:34:35.076Z,14.67
2022-12-31T23:39:42.759Z,14.66
2022-12-31T23:44:45.623Z,14.79
2022-12-31T23:49:48.510Z,14.80
2022-12-31T23:54:52.715Z,14.70
